Flight Track Log - Related Links

Times and Time Zones

All times are in EDT time to prevent confusion due to time zone crossing. See the N20389 flight status page for this flight to view local times or setup timezone preferences in your user account.

Time Position Orientation Groundspeed Altitude Reporting Facility
EDT Latitude Longitude Course Direction KTS MPH feet Rate Location/Type
Mon 06:22:28 PM 42.9072 -76.4283 82° East 114 131 3,700  Level Boston Center
Mon 06:23:04 PM 42.9100 -76.4000 82° East 120 138 3,700  Level Boston Center
Mon 06:24:12 PM 42.9183 -76.3583 75° East 114 131 3,700 49 Level Boston Center
Mon 06:25:06 PM 42.9211 -76.3103 85° East 121 139 3,800  Climbing Boston Center
Mon 06:26:06 PM 42.9228 -76.2642 87° East 121 139 3,700 -47 Descending Boston Center
Mon 06:27:13 PM 42.9231 -76.2119 90° East 124 143 3,700  Level Boston Center
Mon 06:28:20 PM 42.9189 -76.1611 96° East 120 138 3,700  Level Boston Center
Mon 06:29:14 PM 42.9194 -76.1206 89° East 123 142 3,700 52 Level Boston Center
Mon 06:30:15 PM 42.9208 -76.0744 88° East 122 140 3,800  Climbing Boston Center
Mon 06:31:16 PM 42.9247 -76.0264 84° East 124 143 3,700 -99 Descending Boston Center
Mon 06:32:16 PM 42.9261 -75.9800 88° East 128 147 3,600 -50 Descending Boston Center
Mon 06:33:17 PM 42.9283 -75.9286 87° East 126 145 3,600 -49 Level Boston Center
Mon 06:34:18 PM 42.9322 -75.8803 84° East 125 144 3,500 -50 Descending Boston Center
Mon 06:35:18 PM 42.9333 -75.8342 88° East 122 140 3,500 50 Level Boston Center
Mon 06:36:19 PM 42.9386 -75.7892 81° East 124 143 3,600 98 Climbing Boston Center
Mon 06:37:20 PM 42.9381 -75.7425 91° East 120 138 3,700 50 Climbing Boston Center
Mon 06:38:20 PM 42.9372 -75.6956 91° East 122 140 3,700  Level Boston Center
Mon 06:39:21 PM 42.9383 -75.6494 88° East 127 146 3,700 49 Level Boston Center
Mon 06:40:22 PM 42.9425 -75.5986 84° East 125 144 3,800  Climbing Boston Center
Mon 06:41:16 PM 42.9450 -75.5586 85° East 123 142 3,700 -149 Descending Boston Center
Mon 06:42:23 PM 42.9494 -75.5047 84° East 127 146 3,500 -94 Descending Boston Center
Mon 06:43:24 PM 42.9506 -75.4586 88° East 124 143 3,500 50 Level Boston Center
Mon 06:44:24 PM 42.9539 -75.4131 84° East 117 135 3,600 50 Climbing Boston Center
Mon 06:45:25 PM 42.9569 -75.3675 85° East 119 137 3,600 -49 Level Boston Center
Mon 06:46:26 PM 42.9600 -75.3219 85° East 120 138 3,500  Descending Boston Center
Mon 06:47:26 PM 42.9617 -75.2731 87° East 119 137 3,600 50 Climbing Boston Center
Mon 06:48:27 PM 42.9664 -75.2308 81° East 117 135 3,600  Level Boston Center
Mon 06:49:22 PM 42.9689 -75.1881 85° East 119 137 3,600  Level Boston Center
Mon 06:50:22 PM 42.9700 -75.1419 88° East 121 139 3,600 50 Level Boston Center
Mon 06:51:23 PM 42.9706 -75.0983 89° East 120 138 3,700 98 Climbing Boston Center

Login

Don't have an account? Register now (free) for customized features, flight alerts, and more!